sensor_id;sensor_type;location;lat;lon;timestamp;temperature;humidity
12815;DHT22;6472;52.328;13.070;2022-10-16T00:01:03;12.00;99.90
12815;DHT22;6472;52.328;13.070;2022-10-16T00:03:31;12.00;99.90
12815;DHT22;6472;52.328;13.070;2022-10-16T00:06:00;12.10;99.90
12815;DHT22;6472;52.328;13.070;2022-10-16T00:08:28;12.10;99.90
12815;DHT22;6472;52.328;13.070;2022-10-16T00:11:01;12.10;99.90
12815;DHT22;6472;52.328;13.070;2022-10-16T00:13:31;12.10;99.90
12815;DHT22;6472;52.328;13.070;2022-10-16T00:16:00;12.20;99.90
12815;DHT22;6472;52.328;13.070;2022-10-16T00:18:28;12.20;99.90
12815;DHT22;6472;52.328;13.070;2022-10-16T00:21:01;12.20;99.90
12815;DHT22;6472;52.328;13.070;2022-10-16T00:23:29;12.20;99.90
12815;DHT22;6472;52.328;13.070;2022-10-16T00:25:59;12.20;99.90
12815;DHT22;6472;52.328;13.070;2022-10-16T00:28:28;12.20;99.90
12815;DHT22;6472;52.328;13.070;2022-10-16T00:30:58;12.30;99.90
12815;DHT22;6472;52.328;13.070;2022-10-16T00:33:26;12.40;99.90
12815;DHT22;6472;52.328;13.070;2022-10-16T00:35:54;12.40;99.90
12815;DHT22;6472;52.328;13.070;2022-10-16T00:38:25;12.50;99.90
12815;DHT22;6472;52.328;13.070;2022-10-16T00:40:53;12.50;99.90
12815;DHT22;6472;52.328;13.070;2022-10-16T00:43:36;12.60;99.90
12815;DHT22;6472;52.328;13.070;2022-10-16T00:46:13;12.60;99.90
12815;DHT22;6472;52.328;13.070;2022-10-16T00:48:52;12.60;99.90
12815;DHT22;6472;52.328;13.070;2022-10-16T00:51:27;12.70;99.90
12815;DHT22;6472;52.328;13.070;2022-10-16T00:53:56;12.70;99.90
12815;DHT22;6472;52.328;13.070;2022-10-16T00:56:24;12.80;99.90
12815;DHT22;6472;52.328;13.070;2022-10-16T00:58:52;12.90;99.90
12815;DHT22;6472;52.328;13.070;2022-10-16T01:01:22;13.00;99.90
12815;DHT22;6472;52.328;13.070;2022-10-16T01:03:50;13.00;99.90
12815;DHT22;6472;52.328;13.070;2022-10-16T01:06:23;13.00;99.90
12815;DHT22;6472;52.328;13.070;2022-10-16T01:09:12;13.00;99.90
12815;DHT22;6472;52.328;13.070;2022-10-16T01:11:47;12.90;99.90
12815;DHT22;6472;52.328;13.070;2022-10-16T01:14:23;12.90;99.90
12815;DHT22;6472;52.328;13.070;2022-10-16T01:17:00;12.80;99.90
12815;DHT22;6472;52.328;13.070;2022-10-16T01:19:44;12.80;99.90
12815;DHT22;6472;52.328;13.070;2022-10-16T01:22:20;12.70;99.90
12815;DHT22;6472;52.328;13.070;2022-10-16T01:24:49;12.60;99.90
12815;DHT22;6472;52.328;13.070;2022-10-16T01:27:21;12.60;99.90
12815;DHT22;6472;52.328;13.070;2022-10-16T01:29:53;12.50;99.90
12815;DHT22;6472;52.328;13.070;2022-10-16T01:32:28;12.50;99.90
12815;DHT22;6472;52.328;13.070;2022-10-16T01:35:02;12.50;99.90
12815;DHT22;6472;52.328;13.070;2022-10-16T01:37:35;12.40;99.90
12815;DHT22;6472;52.328;13.070;2022-10-16T01:40:07;12.50;99.90
12815;DHT22;6472;52.328;13.070;2022-10-16T01:42:41;12.50;99.90
12815;DHT22;6472;52.328;13.070;2022-10-16T01:45:13;12.50;99.90
12815;DHT22;6472;52.328;13.070;2022-10-16T01:47:45;12.50;99.90
12815;DHT22;6472;52.328;13.070;2022-10-16T01:50:15;12.50;99.90
12815;DHT22;6472;52.328;13.070;2022-10-16T01:52:48;12.50;99.90
12815;DHT22;6472;52.328;13.070;2022-10-16T01:55:20;12.50;99.90
12815;DHT22;6472;52.328;13.070;2022-10-16T01:57:52;12.50;99.90
12815;DHT22;6472;52.328;13.070;2022-10-16T02:00:22;12.50;99.90
12815;DHT22;6472;52.328;13.070;2022-10-16T02:02:53;12.50;99.90
12815;DHT22;6472;52.328;13.070;2022-10-16T02:05:25;12.50;99.90
12815;DHT22;6472;52.328;13.070;2022-10-16T02:07:54;12.50;99.90
12815;DHT22;6472;52.328;13.070;2022-10-16T02:10:26;12.50;99.90
12815;DHT22;6472;52.328;13.070;2022-10-16T02:13:03;12.60;99.90
12815;DHT22;6472;52.328;13.070;2022-10-16T02:15:32;12.60;99.90
12815;DHT22;6472;52.328;13.070;2022-10-16T02:18:01;12.60;99.90
12815;DHT22;6472;52.328;13.070;2022-10-16T02:20:34;12.60;99.90
12815;DHT22;6472;52.328;13.070;2022-10-16T02:23:05;12.60;99.90
12815;DHT22;6472;52.328;13.070;2022-10-16T02:25:38;12.50;99.90
12815;DHT22;6472;52.328;13.070;2022-10-16T02:28:12;12.50;99.90
12815;DHT22;6472;52.328;13.070;2022-10-16T02:30:45;12.50;99.90
12815;DHT22;6472;52.328;13.070;2022-10-16T02:33:16;12.50;99.90
12815;DHT22;6472;52.328;13.070;2022-10-16T02:35:45;12.50;99.90
12815;DHT22;6472;52.328;13.070;2022-10-16T02:38:15;12.40;99.90
12815;DHT22;6472;52.328;13.070;2022-10-16T02:40:44;12.40;99.90
12815;DHT22;6472;52.328;13.070;2022-10-16T02:43:14;12.40;99.90
12815;DHT22;6472;52.328;13.070;2022-10-16T02:45:42;12.30;99.90
12815;DHT22;6472;52.328;13.070;2022-10-16T02:48:10;12.30;99.90
12815;DHT22;6472;52.328;13.070;2022-10-16T02:50:38;12.30;99.90
12815;DHT22;6472;52.328;13.070;2022-10-16T02:53:06;12.30;99.90
12815;DHT22;6472;52.328;13.070;2022-10-16T02:55:34;12.20;99.90
12815;DHT22;6472;52.328;13.070;2022-10-16T02:58:02;12.10;99.90
12815;DHT22;6472;52.328;13.070;2022-10-16T03:00:32;12.10;99.90
12815;DHT22;6472;52.328;13.070;2022-10-16T03:03:00;12.10;99.90
12815;DHT22;6472;52.328;13.070;2022-10-16T03:05:28;12.10;99.90
12815;DHT22;6472;52.328;13.070;2022-10-16T03:07:56;12.10;99.90
12815;DHT22;6472;52.328;13.070;2022-10-16T03:10:26;12.00;99.90
12815;DHT22;6472;52.328;13.070;2022-10-16T03:12:55;12.00;99.90
12815;DHT22;6472;52.328;13.070;2022-10-16T03:15:23;12.00;99.90
12815;DHT22;6472;52.328;13.070;2022-10-16T03:17:52;11.90;99.90
12815;DHT22;6472;52.328;13.070;2022-10-16T03:20:20;11.90;99.90
12815;DHT22;6472;52.328;13.070;2022-10-16T03:22:48;11.90;99.90
12815;DHT22;6472;52.328;13.070;2022-10-16T03:25:16;11.80;99.90
12815;DHT22;6472;52.328;13.070;2022-10-16T03:27:44;11.80;99.90
12815;DHT22;6472;52.328;13.070;2022-10-16T03:30:13;11.80;99.90
12815;DHT22;6472;52.328;13.070;2022-10-16T03:32:41;11.80;99.90
12815;DHT22;6472;52.328;13.070;2022-10-16T03:35:10;11.70;99.90
12815;DHT22;6472;52.328;13.070;2022-10-16T03:37:38;11.80;99.90
12815;DHT22;6472;52.328;13.070;2022-10-16T03:40:08;11.80;99.90
12815;DHT22;6472;52.328;13.070;2022-10-16T03:42:36;11.80;99.90
12815;DHT22;6472;52.328;13.070;2022-10-16T03:45:05;11.80;99.90
12815;DHT22;6472;52.328;13.070;2022-10-16T03:47:33;11.80;99.90
12815;DHT22;6472;52.328;13.070;2022-10-16T03:50:02;11.80;99.90
12815;DHT22;6472;52.328;13.070;2022-10-16T03:52:32;11.80;99.90
12815;DHT22;6472;52.328;13.070;2022-10-16T03:55:00;11.70;99.90
12815;DHT22;6472;52.328;13.070;2022-10-16T03:57:28;11.80;99.90
12815;DHT22;6472;52.328;13.070;2022-10-16T03:59:56;11.70;99.90
12815;DHT22;6472;52.328;13.070;2022-10-16T04:02:24;11.80;99.90
12815;DHT22;6472;52.328;13.070;2022-10-16T04:04:52;11.80;99.90
12815;DHT22;6472;52.328;13.070;2022-10-16T04:07:20;11.80;99.90
12815;DHT22;6472;52.328;13.070;2022-10-16T04:09:50;11.80;99.90
12815;DHT22;6472;52.328;13.070;2022-10-16T04:12:18;11.80;99.90
12815;DHT22;6472;52.328;13.070;2022-10-16T04:14:46;11.80;99.90
12815;DHT22;6472;52.328;13.070;2022-10-16T04:17:15;11.80;99.90
12815;DHT22;6472;52.328;13.070;2022-10-16T04:19:43;11.80;99.90
12815;DHT22;6472;52.328;13.070;2022-10-16T04:22:12;11.70;99.90
12815;DHT22;6472;52.328;13.070;2022-10-16T04:24:40;11.70;99.90
12815;DHT22;6472;52.328;13.070;2022-10-16T04:27:10;11.70;99.90
12815;DHT22;6472;52.328;13.070;2022-10-16T04:29:38;11.60;99.90
12815;DHT22;6472;52.328;13.070;2022-10-16T04:32:08;11.60;99.90
12815;DHT22;6472;52.328;13.070;2022-10-16T04:34:36;11.60;99.90
12815;DHT22;6472;52.328;13.070;2022-10-16T04:37:05;11.60;99.90
12815;DHT22;6472;52.328;13.070;2022-10-16T04:39:33;11.60;99.90
12815;DHT22;6472;52.328;13.070;2022-10-16T04:42:01;11.60;99.90
12815;DHT22;6472;52.328;13.070;2022-10-16T04:44:30;11.50;99.90
12815;DHT22;6472;52.328;13.070;2022-10-16T04:46:58;11.60;99.90
12815;DHT22;6472;52.328;13.070;2022-10-16T04:49:27;11.50;99.90
12815;DHT22;6472;52.328;13.070;2022-10-16T04:51:54;11.50;99.90
12815;DHT22;6472;52.328;13.070;2022-10-16T04:54:22;11.50;99.90
12815;DHT22;6472;52.328;13.070;2022-10-16T04:56:50;11.50;99.90
12815;DHT22;6472;52.328;13.070;2022-10-16T04:59:20;11.40;99.90
12815;DHT22;6472;52.328;13.070;2022-10-16T05:01:50;11.40;99.90
12815;DHT22;6472;52.328;13.070;2022-10-16T05:04:18;11.40;99.90
12815;DHT22;6472;52.328;13.070;2022-10-16T05:06:47;11.40;99.90
12815;DHT22;6472;52.328;13.070;2022-10-16T05:09:16;11.40;99.90
12815;DHT22;6472;52.328;13.070;2022-10-16T05:11:44;11.40;99.90
12815;DHT22;6472;52.328;13.070;2022-10-16T05:14:12;11.40;99.90
12815;DHT22;6472;52.328;13.070;2022-10-16T05:16:40;11.40;99.90
12815;DHT22;6472;52.328;13.070;2022-10-16T05:19:10;11.40;99.90
12815;DHT22;6472;52.328;13.070;2022-10-16T05:21:54;11.40;99.90
12815;DHT22;6472;52.328;13.070;2022-10-16T05:24:23;11.30;99.90
12815;DHT22;6472;52.328;13.070;2022-10-16T05:26:51;11.30;99.90
12815;DHT22;6472;52.328;13.070;2022-10-16T05:29:19;11.30;99.90
12815;DHT22;6472;52.328;13.070;2022-10-16T05:31:50;11.40;99.90
12815;DHT22;6472;52.328;13.070;2022-10-16T05:34:20;11.30;99.90
12815;DHT22;6472;52.328;13.070;2022-10-16T05:36:48;11.30;99.90
12815;DHT22;6472;52.328;13.070;2022-10-16T05:39:16;11.30;99.90
12815;DHT22;6472;52.328;13.070;2022-10-16T05:41:45;11.30;99.90
12815;DHT22;6472;52.328;13.070;2022-10-16T05:44:13;11.30;99.90
12815;DHT22;6472;52.328;13.070;2022-10-16T05:46:40;11.30;99.90
12815;DHT22;6472;52.328;13.070;2022-10-16T05:49:09;11.30;99.90
12815;DHT22;6472;52.328;13.070;2022-10-16T05:51:38;11.30;99.90
12815;DHT22;6472;52.328;13.070;2022-10-16T05:54:06;11.30;99.90
12815;DHT22;6472;52.328;13.070;2022-10-16T05:56:35;11.40;99.90
12815;DHT22;6472;52.328;13.070;2022-10-16T05:59:03;11.40;99.90
12815;DHT22;6472;52.328;13.070;2022-10-16T06:01:32;11.40;99.90
12815;DHT22;6472;52.328;13.070;2022-10-16T06:04:00;11.50;99.90
12815;DHT22;6472;52.328;13.070;2022-10-16T06:06:29;11.50;99.90
12815;DHT22;6472;52.328;13.070;2022-10-16T06:08:58;11.50;99.90
12815;DHT22;6472;52.328;13.070;2022-10-16T06:11:28;11.50;99.90
12815;DHT22;6472;52.328;13.070;2022-10-16T06:13:58;11.60;99.90
12815;DHT22;6472;52.328;13.070;2022-10-16T06:16:28;11.60;99.90
12815;DHT22;6472;52.328;13.070;2022-10-16T06:18:56;11.70;99.90
12815;DHT22;6472;52.328;13.070;2022-10-16T06:21:27;11.70;99.90
12815;DHT22;6472;52.328;13.070;2022-10-16T06:23:56;11.70;99.90
12815;DHT22;6472;52.328;13.070;2022-10-16T06:26:27;11.70;99.90
12815;DHT22;6472;52.328;13.070;2022-10-16T06:28:56;11.70;99.90
12815;DHT22;6472;52.328;13.070;2022-10-16T06:31:26;11.70;99.90
12815;DHT22;6472;52.328;13.070;2022-10-16T06:33:57;11.80;99.90
12815;DHT22;6472;52.328;13.070;2022-10-16T06:36:26;11.80;99.90
12815;DHT22;6472;52.328;13.070;2022-10-16T06:38:54;11.80;99.90
12815;DHT22;6472;52.328;13.070;2022-10-16T06:41:23;11.90;99.90
12815;DHT22;6472;52.328;13.070;2022-10-16T06:43:52;11.90;99.90
12815;DHT22;6472;52.328;13.070;2022-10-16T06:46:21;12.00;99.90
12815;DHT22;6472;52.328;13.070;2022-10-16T06:48:50;12.10;99.90
12815;DHT22;6472;52.328;13.070;2022-10-16T06:51:20;12.20;99.90
12815;DHT22;6472;52.328;13.070;2022-10-16T06:53:51;12.20;99.90
12815;DHT22;6472;52.328;13.070;2022-10-16T06:56:30;12.30;99.90
12815;DHT22;6472;52.328;13.070;2022-10-16T06:59:00;12.40;99.90
12815;DHT22;6472;52.328;13.070;2022-10-16T07:01:29;12.50;99.90
12815;DHT22;6472;52.328;13.070;2022-10-16T07:03:57;12.60;99.90
12815;DHT22;6472;52.328;13.070;2022-10-16T07:06:26;12.80;99.90
12815;DHT22;6472;52.328;13.070;2022-10-16T07:08:54;13.00;99.90
12815;DHT22;6472;52.328;13.070;2022-10-16T07:11:23;13.10;99.90
12815;DHT22;6472;52.328;13.070;2022-10-16T07:13:51;13.30;99.90
12815;DHT22;6472;52.328;13.070;2022-10-16T07:16:25;13.50;99.90
12815;DHT22;6472;52.328;13.070;2022-10-16T07:18:53;13.70;99.90
12815;DHT22;6472;52.328;13.070;2022-10-16T07:21:26;13.90;99.90
12815;DHT22;6472;52.328;13.070;2022-10-16T07:23:57;14.10;99.90
12815;DHT22;6472;52.328;13.070;2022-10-16T07:26:27;14.30;99.90
12815;DHT22;6472;52.328;13.070;2022-10-16T07:28:55;14.40;99.90
12815;DHT22;6472;52.328;13.070;2022-10-16T07:31:26;14.50;99.90
12815;DHT22;6472;52.328;13.070;2022-10-16T07:33:54;14.60;99.90
12815;DHT22;6472;52.328;13.070;2022-10-16T07:36:22;14.70;99.90
12815;DHT22;6472;52.328;13.070;2022-10-16T07:38:50;14.70;99.90
12815;DHT22;6472;52.328;13.070;2022-10-16T07:41:24;14.80;99.90
12815;DHT22;6472;52.328;13.070;2022-10-16T07:43:53;14.80;99.90
12815;DHT22;6472;52.328;13.070;2022-10-16T07:46:22;14.90;99.90
12815;DHT22;6472;52.328;13.070;2022-10-16T07:48:52;14.90;99.90
12815;DHT22;6472;52.328;13.070;2022-10-16T07:51:21;15.00;99.90
12815;DHT22;6472;52.328;13.070;2022-10-16T07:53:50;15.00;99.90
12815;DHT22;6472;52.328;13.070;2022-10-16T07:56:19;15.00;99.90
12815;DHT22;6472;52.328;13.070;2022-10-16T07:58:48;15.00;99.90
12815;DHT22;6472;52.328;13.070;2022-10-16T08:01:17;15.10;99.90
12815;DHT22;6472;52.328;13.070;2022-10-16T08:03:47;15.10;99.90
12815;DHT22;6472;52.328;13.070;2022-10-16T08:06:18;15.20;99.90
12815;DHT22;6472;52.328;13.070;2022-10-16T08:08:54;15.30;99.90
12815;DHT22;6472;52.328;13.070;2022-10-16T08:11:22;15.40;99.90
12815;DHT22;6472;52.328;13.070;2022-10-16T08:13:50;15.40;99.90
12815;DHT22;6472;52.328;13.070;2022-10-16T08:16:18;15.50;99.90
12815;DHT22;6472;52.328;13.070;2022-10-16T08:18:46;15.60;99.90
12815;DHT22;6472;52.328;13.070;2022-10-16T08:21:17;15.70;99.90
12815;DHT22;6472;52.328;13.070;2022-10-16T08:23:47;15.90;99.90
12815;DHT22;6472;52.328;13.070;2022-10-16T08:26:24;15.90;99.90
12815;DHT22;6472;52.328;13.070;2022-10-16T08:28:52;16.00;99.90
12815;DHT22;6472;52.328;13.070;2022-10-16T08:31:21;16.10;99.90
12815;DHT22;6472;52.328;13.070;2022-10-16T08:33:50;16.10;99.90
12815;DHT22;6472;52.328;13.070;2022-10-16T08:36:20;16.20;99.90
12815;DHT22;6472;52.328;13.070;2022-10-16T08:38:49;16.20;99.90
12815;DHT22;6472;52.328;13.070;2022-10-16T08:47:24;16.20;99.90
12815;DHT22;6472;52.328;13.070;2022-10-16T08:49:58;16.30;99.90
12815;DHT22;6472;52.328;13.070;2022-10-16T08:52:32;16.30;99.90
12815;DHT22;6472;52.328;13.070;2022-10-16T08:55:02;16.30;99.90
12815;DHT22;6472;52.328;13.070;2022-10-16T08:57:31;16.30;99.90
12815;DHT22;6472;52.328;13.070;2022-10-16T09:00:04;16.40;99.90
12815;DHT22;6472;52.328;13.070;2022-10-16T09:02:39;16.40;99.90
12815;DHT22;6472;52.328;13.070;2022-10-16T09:05:19;16.40;99.90
12815;DHT22;6472;52.328;13.070;2022-10-16T09:07:58;16.40;99.90
12815;DHT22;6472;52.328;13.070;2022-10-16T09:10:40;16.40;99.90
12815;DHT22;6472;52.328;13.070;2022-10-16T09:13:15;16.40;99.90
12815;DHT22;6472;52.328;13.070;2022-10-16T09:15:52;16.50;99.90
12815;DHT22;6472;52.328;13.070;2022-10-16T09:18:28;16.60;99.90
12815;DHT22;6472;52.328;13.070;2022-10-16T09:21:04;16.70;99.90
12815;DHT22;6472;52.328;13.070;2022-10-16T09:23:37;16.80;99.90
12815;DHT22;6472;52.328;13.070;2022-10-16T09:26:09;16.90;99.90
12815;DHT22;6472;52.328;13.070;2022-10-16T09:28:37;17.10;99.90
12815;DHT22;6472;52.328;13.070;2022-10-16T09:31:13;17.40;99.90
12815;DHT22;6472;52.328;13.070;2022-10-16T09:33:44;17.50;99.90
12815;DHT22;6472;52.328;13.070;2022-10-16T09:36:13;17.60;99.90
12815;DHT22;6472;52.328;13.070;2022-10-16T09:38:43;17.70;99.90
12815;DHT22;6472;52.328;13.070;2022-10-16T09:41:17;17.70;99.90
12815;DHT22;6472;52.328;13.070;2022-10-16T09:43:49;17.70;99.90
12815;DHT22;6472;52.328;13.070;2022-10-16T09:46:24;17.60;99.90
12815;DHT22;6472;52.328;13.070;2022-10-16T09:48:55;17.50;99.90
12815;DHT22;6472;52.328;13.070;2022-10-16T09:51:25;17.40;99.90
12815;DHT22;6472;52.328;13.070;2022-10-16T09:53:59;17.50;99.90
12815;DHT22;6472;52.328;13.070;2022-10-16T09:56:30;17.50;99.90
12815;DHT22;6472;52.328;13.070;2022-10-16T09:59:01;17.60;99.90
12815;DHT22;6472;52.328;13.070;2022-10-16T10:01:35;17.60;99.90
12815;DHT22;6472;52.328;13.070;2022-10-16T10:04:03;17.90;99.90
12815;DHT22;6472;52.328;13.070;2022-10-16T10:06:34;18.00;99.90
12815;DHT22;6472;52.328;13.070;2022-10-16T10:09:17;18.30;99.90
12815;DHT22;6472;52.328;13.070;2022-10-16T10:11:53;18.50;99.90
12815;DHT22;6472;52.328;13.070;2022-10-16T10:14:28;18.70;99.90
12815;DHT22;6472;52.328;13.070;2022-10-16T10:17:11;18.80;99.90
12815;DHT22;6472;52.328;13.070;2022-10-16T10:19:41;18.90;99.90
12815;DHT22;6472;52.328;13.070;2022-10-16T10:22:39;18.90;99.90
12815;DHT22;6472;52.328;13.070;2022-10-16T10:25:18;18.90;99.90
12815;DHT22;6472;52.328;13.070;2022-10-16T10:27:58;18.80;99.90
12815;DHT22;6472;52.328;13.070;2022-10-16T10:30:34;18.80;99.90
12815;DHT22;6472;52.328;13.070;2022-10-16T10:33:15;18.80;99.90
12815;DHT22;6472;52.328;13.070;2022-10-16T10:35:53;18.80;99.90
12815;DHT22;6472;52.328;13.070;2022-10-16T10:38:30;18.90;99.90
12815;DHT22;6472;52.328;13.070;2022-10-16T10:41:09;19.00;99.90
12815;DHT22;6472;52.328;13.070;2022-10-16T10:43:50;18.90;99.90
12815;DHT22;6472;52.328;13.070;2022-10-16T10:46:29;19.00;99.90
12815;DHT22;6472;52.328;13.070;2022-10-16T10:49:16;19.10;99.90
12815;DHT22;6472;52.328;13.070;2022-10-16T10:51:54;19.10;99.90
12815;DHT22;6472;52.328;13.070;2022-10-16T10:54:31;19.10;99.90
12815;DHT22;6472;52.328;13.070;2022-10-16T10:57:09;19.00;99.90
12815;DHT22;6472;52.328;13.070;2022-10-16T10:59:52;18.90;99.90
12815;DHT22;6472;52.328;13.070;2022-10-16T11:02:26;19.00;99.90
12815;DHT22;6472;52.328;13.070;2022-10-16T11:05:20;19.00;99.90
12815;DHT22;6472;52.328;13.070;2022-10-16T11:07:54;19.00;99.90
12815;DHT22;6472;52.328;13.070;2022-10-16T11:10:27;19.10;99.90
12815;DHT22;6472;52.328;13.070;2022-10-16T11:13:03;19.20;99.90
12815;DHT22;6472;52.328;13.070;2022-10-16T11:15:39;19.40;99.90
12815;DHT22;6472;52.328;13.070;2022-10-16T11:18:16;19.40;99.90
12815;DHT22;6472;52.328;13.070;2022-10-16T11:20:49;19.40;99.90
12815;DHT22;6472;52.328;13.070;2022-10-16T11:23:25;19.50;99.90
12815;DHT22;6472;52.328;13.070;2022-10-16T11:25:56;19.40;99.90
12815;DHT22;6472;52.328;13.070;2022-10-16T11:28:31;19.40;99.90
12815;DHT22;6472;52.328;13.070;2022-10-16T11:31:04;19.30;99.90
12815;DHT22;6472;52.328;13.070;2022-10-16T11:33:39;19.30;99.90
12815;DHT22;6472;52.328;13.070;2022-10-16T11:36:12;19.20;99.90
12815;DHT22;6472;52.328;13.070;2022-10-16T11:38:46;19.20;99.90
12815;DHT22;6472;52.328;13.070;2022-10-16T11:41:23;19.20;99.90
12815;DHT22;6472;52.328;13.070;2022-10-16T11:44:03;19.20;99.90
12815;DHT22;6472;52.328;13.070;2022-10-16T11:46:34;19.20;99.90
12815;DHT22;6472;52.328;13.070;2022-10-16T11:49:25;19.20;99.90
12815;DHT22;6472;52.328;13.070;2022-10-16T11:52:01;19.30;99.90
12815;DHT22;6472;52.328;13.070;2022-10-16T11:54:38;19.40;99.90
12815;DHT22;6472;52.328;13.070;2022-10-16T11:57:12;19.40;99.90
12815;DHT22;6472;52.328;13.070;2022-10-16T11:59:48;19.50;99.90
12815;DHT22;6472;52.328;13.070;2022-10-16T12:02:40;19.40;99.90
12815;DHT22;6472;52.328;13.070;2022-10-16T12:05:19;19.40;99.90
12815;DHT22;6472;52.328;13.070;2022-10-16T12:07:55;19.40;99.90
12815;DHT22;6472;52.328;13.070;2022-10-16T12:10:29;19.40;99.90
12815;DHT22;6472;52.328;13.070;2022-10-16T12:12:58;19.50;99.90
12815;DHT22;6472;52.328;13.070;2022-10-16T12:15:30;19.50;99.90
12815;DHT22;6472;52.328;13.070;2022-10-16T12:18:21;19.40;99.90
12815;DHT22;6472;52.328;13.070;2022-10-16T12:20:55;19.40;99.90
12815;DHT22;6472;52.328;13.070;2022-10-16T12:23:26;19.40;99.90
12815;DHT22;6472;52.328;13.070;2022-10-16T12:25:55;19.30;99.90
12815;DHT22;6472;52.328;13.070;2022-10-16T12:28:27;19.30;99.90
12815;DHT22;6472;52.328;13.070;2022-10-16T12:31:00;19.20;99.90
12815;DHT22;6472;52.328;13.070;2022-10-16T12:33:30;19.20;99.90
12815;DHT22;6472;52.328;13.070;2022-10-16T12:36:01;19.10;99.90
12815;DHT22;6472;52.328;13.070;2022-10-16T12:38:35;18.90;99.90
12815;DHT22;6472;52.328;13.070;2022-10-16T12:41:07;18.80;99.90
12815;DHT22;6472;52.328;13.070;2022-10-16T12:43:39;18.80;99.90
12815;DHT22;6472;52.328;13.070;2022-10-16T12:46:33;18.60;99.90
12815;DHT22;6472;52.328;13.070;2022-10-16T12:49:22;18.60;99.90
12815;DHT22;6472;52.328;13.070;2022-10-16T12:51:57;18.60;99.90
12815;DHT22;6472;52.328;13.070;2022-10-16T12:54:28;18.70;99.90
12815;DHT22;6472;52.328;13.070;2022-10-16T12:57:12;18.80;99.90
12815;DHT22;6472;52.328;13.070;2022-10-16T12:59:46;18.90;99.90
12815;DHT22;6472;52.328;13.070;2022-10-16T13:05:21;19.00;99.90
12815;DHT22;6472;52.328;13.070;2022-10-16T13:08:01;19.10;99.90
12815;DHT22;6472;52.328;13.070;2022-10-16T13:10:36;19.10;99.90
12815;DHT22;6472;52.328;13.070;2022-10-16T13:13:29;19.10;99.90
12815;DHT22;6472;52.328;13.070;2022-10-16T13:16:12;19.10;99.90
12815;DHT22;6472;52.328;13.070;2022-10-16T13:18:53;19.10;99.90
12815;DHT22;6472;52.328;13.070;2022-10-16T13:21:37;19.10;99.90
12815;DHT22;6472;52.328;13.070;2022-10-16T13:24:21;19.10;99.90
12815;DHT22;6472;52.328;13.070;2022-10-16T13:26:59;19.20;99.90
12815;DHT22;6472;52.328;13.070;2022-10-16T13:29:30;19.30;99.90
12815;DHT22;6472;52.328;13.070;2022-10-16T13:32:00;19.40;99.90
12815;DHT22;6472;52.328;13.070;2022-10-16T13:34:30;19.40;99.90
12815;DHT22;6472;52.328;13.070;2022-10-16T13:36:58;19.50;99.90
12815;DHT22;6472;52.328;13.070;2022-10-16T13:39:27;19.60;99.90
12815;DHT22;6472;52.328;13.070;2022-10-16T13:42:02;19.50;99.90
12815;DHT22;6472;52.328;13.070;2022-10-16T13:44:40;19.50;99.90
12815;DHT22;6472;52.328;13.070;2022-10-16T13:47:17;19.50;99.90
12815;DHT22;6472;52.328;13.070;2022-10-16T13:49:59;19.50;99.90
12815;DHT22;6472;52.328;13.070;2022-10-16T13:52:28;19.50;99.90
12815;DHT22;6472;52.328;13.070;2022-10-16T13:54:56;19.30;99.90
12815;DHT22;6472;52.328;13.070;2022-10-16T13:57:28;19.20;99.90
12815;DHT22;6472;52.328;13.070;2022-10-16T13:59:56;19.10;99.90
12815;DHT22;6472;52.328;13.070;2022-10-16T14:02:26;19.00;99.90
12815;DHT22;6472;52.328;13.070;2022-10-16T14:04:57;19.10;99.90
12815;DHT22;6472;52.328;13.070;2022-10-16T14:07:27;19.10;99.90
12815;DHT22;6472;52.328;13.070;2022-10-16T14:09:59;19.00;99.90
12815;DHT22;6472;52.328;13.070;2022-10-16T14:12:28;19.10;99.90
12815;DHT22;6472;52.328;13.070;2022-10-16T14:14:58;19.10;99.90
12815;DHT22;6472;52.328;13.070;2022-10-16T14:17:29;19.20;99.90
12815;DHT22;6472;52.328;13.070;2022-10-16T14:20:00;19.00;99.90
12815;DHT22;6472;52.328;13.070;2022-10-16T14:22:34;18.90;99.90
12815;DHT22;6472;52.328;13.070;2022-10-16T14:25:20;18.90;99.90
12815;DHT22;6472;52.328;13.070;2022-10-16T14:27:58;18.90;99.90
12815;DHT22;6472;52.328;13.070;2022-10-16T14:31:35;18.80;99.90
12815;DHT22;6472;52.328;13.070;2022-10-16T14:33:34;18.80;99.90
12815;DHT22;6472;52.328;13.070;2022-10-16T14:36:05;18.80;99.90
12815;DHT22;6472;52.328;13.070;2022-10-16T14:38:39;18.80;99.90
12815;DHT22;6472;52.328;13.070;2022-10-16T14:41:07;18.60;99.90
12815;DHT22;6472;52.328;13.070;2022-10-16T14:43:37;18.60;99.90
12815;DHT22;6472;52.328;13.070;2022-10-16T14:46:12;18.60;99.90
12815;DHT22;6472;52.328;13.070;2022-10-16T14:48:41;18.50;99.90
12815;DHT22;6472;52.328;13.070;2022-10-16T14:51:13;18.50;99.90
12815;DHT22;6472;52.328;13.070;2022-10-16T14:53:42;18.50;99.90
12815;DHT22;6472;52.328;13.070;2022-10-16T14:56:17;18.50;99.90
12815;DHT22;6472;52.328;13.070;2022-10-16T14:58:45;18.40;99.90
12815;DHT22;6472;52.328;13.070;2022-10-16T15:01:14;18.40;99.90
12815;DHT22;6472;52.328;13.070;2022-10-16T15:03:42;18.40;99.90
12815;DHT22;6472;52.328;13.070;2022-10-16T15:06:12;18.30;99.90
12815;DHT22;6472;52.328;13.070;2022-10-16T15:08:41;18.20;99.90
12815;DHT22;6472;52.328;13.070;2022-10-16T15:11:11;18.10;99.90
12815;DHT22;6472;52.328;13.070;2022-10-16T15:13:40;18.00;99.90
12815;DHT22;6472;52.328;13.070;2022-10-16T15:16:10;17.90;99.90
12815;DHT22;6472;52.328;13.070;2022-10-16T15:18:39;17.90;99.90
12815;DHT22;6472;52.328;13.070;2022-10-16T15:21:07;17.80;99.90
12815;DHT22;6472;52.328;13.070;2022-10-16T15:23:37;17.70;99.90
12815;DHT22;6472;52.328;13.070;2022-10-16T15:26:05;17.50;99.90
12815;DHT22;6472;52.328;13.070;2022-10-16T15:28:33;17.30;99.90
12815;DHT22;6472;52.328;13.070;2022-10-16T15:31:04;17.20;99.90
12815;DHT22;6472;52.328;13.070;2022-10-16T15:33:33;17.00;99.90
12815;DHT22;6472;52.328;13.070;2022-10-16T15:36:06;16.90;99.90
12815;DHT22;6472;52.328;13.070;2022-10-16T15:38:37;16.70;99.90
12815;DHT22;6472;52.328;13.070;2022-10-16T15:41:06;16.50;99.90
12815;DHT22;6472;52.328;13.070;2022-10-16T15:43:34;16.30;99.90
12815;DHT22;6472;52.328;13.070;2022-10-16T15:46:06;16.20;99.90
12815;DHT22;6472;52.328;13.070;2022-10-16T15:48:35;16.00;99.90
12815;DHT22;6472;52.328;13.070;2022-10-16T15:51:05;15.80;99.90
12815;DHT22;6472;52.328;13.070;2022-10-16T15:53:34;15.70;99.90
12815;DHT22;6472;52.328;13.070;2022-10-16T15:56:07;15.40;99.90
12815;DHT22;6472;52.328;13.070;2022-10-16T15:58:36;15.30;99.90
12815;DHT22;6472;52.328;13.070;2022-10-16T16:01:04;15.10;99.90
12815;DHT22;6472;52.328;13.070;2022-10-16T16:03:33;15.00;99.90
12815;DHT22;6472;52.328;13.070;2022-10-16T16:06:06;14.80;99.90
12815;DHT22;6472;52.328;13.070;2022-10-16T16:08:35;14.60;99.90